Time;durP1;ratioP1;P1;durP2;ratioP2;P2;SDS_P1;SDS_P2;PMS_P1;PMS_P2;Temp;Humidity;BMP_temperature;BMP_pressure;BME280_temperature;BME280_humidity;BME280_pressure;Samples;Min_cycle;Max_cycle;Signal;HPM_P1;HPM_P2
2023/10/11 00:01:35;;;;;;;18.33;5.35;;;12.50;99.90;;;;;;5092029;28;20196;-87
2023/10/11 00:04:03;;;;;;;13.23;5.45;;;12.40;99.90;;;;;;5080716;28;20205;-87
2023/10/11 00:06:33;;;;;;;16.08;5.55;;;12.40;99.90;;;;;;5091245;28;20201;-86
2023/10/11 00:09:01;;;;;;;13.35;5.07;;;12.30;99.90;;;;;;5089151;28;20255;-88
2023/10/11 00:11:30;;;;;;;11.05;5.28;;;12.30;99.90;;;;;;5083195;28;20204;-87
2023/10/11 00:13:57;;;;;;;14.80;5.80;;;12.20;99.90;;;;;;5088415;28;20565;-87
2023/10/11 00:16:24;;;;;;;16.98;5.68;;;12.20;99.90;;;;;;5088357;28;20208;-87
2023/10/11 00:18:51;;;;;;;13.82;5.32;;;12.20;99.90;;;;;;5088888;28;20232;-87
2023/10/11 00:21:18;;;;;;;11.85;4.90;;;12.20;99.90;;;;;;5090705;28;20201;-87
2023/10/11 00:23:48;;;;;;;13.32;5.20;;;12.20;99.90;;;;;;5087285;28;20636;-87
2023/10/11 00:26:18;;;;;;;11.57;4.72;;;12.30;99.90;;;;;;5087041;28;20643;-87
2023/10/11 00:28:45;;;;;;;13.43;4.90;;;12.20;99.90;;;;;;5072770;28;20664;-87
2023/10/11 00:31:18;;;;;;;13.57;5.70;;;12.20;99.90;;;;;;5090247;28;20197;-87
2023/10/11 00:33:45;;;;;;;12.00;4.93;;;12.20;99.90;;;;;;5081098;28;20240;-87
2023/10/11 00:36:12;;;;;;;17.98;5.22;;;12.20;99.90;;;;;;5090967;28;20197;-87
2023/10/11 00:38:51;;;;;;;14.15;4.78;;;12.10;99.90;;;;;;5085958;28;20205;-87
2023/10/11 00:41:19;;;;;;;10.95;4.90;;;12.10;99.90;;;;;;5084236;28;20201;-87
2023/10/11 00:43:49;;;;;;;13.52;5.05;;;12.10;99.90;;;;;;5091013;28;20232;-87
2023/10/11 00:46:19;;;;;;;11.13;5.00;;;12.10;99.90;;;;;;5089255;28;20279;-87
2023/10/11 00:48:53;;;;;;;11.40;4.85;;;12.10;99.90;;;;;;5088833;28;20584;-87
2023/10/11 00:51:20;;;;;;;10.60;5.13;;;12.10;99.90;;;;;;5087263;28;20235;-87
2023/10/11 00:53:48;;;;;;;14.38;5.50;;;12.00;99.90;;;;;;5080595;28;20221;-87
2023/10/11 00:56:18;;;;;;;13.02;4.90;;;12.00;99.90;;;;;;5084353;28;20197;-87
2023/10/11 00:58:46;;;;;;;10.18;5.40;;;12.00;99.90;;;;;;5088156;28;20288;-86
2023/10/11 01:01:14;;;;;;;12.95;5.15;;;12.00;99.90;;;;;;5091224;28;20684;-87
2023/10/11 01:03:42;;;;;;;11.93;4.85;;;11.90;99.90;;;;;;5083395;28;20584;-87
2023/10/11 01:06:10;;;;;;;14.63;5.18;;;11.90;99.90;;;;;;5088428;28;20204;-87
2023/10/11 01:08:39;;;;;;;13.68;4.90;;;11.90;99.90;;;;;;5086495;28;20676;-87
2023/10/11 01:11:09;;;;;;;21.55;5.20;;;11.80;99.90;;;;;;5071471;28;20205;-87
2023/10/11 01:13:38;;;;;;;17.73;5.18;;;11.80;99.90;;;;;;5081425;28;20220;-86
2023/10/11 01:16:06;;;;;;;17.08;5.40;;;11.80;99.90;;;;;;5090356;28;20224;-86
2023/10/11 01:18:35;;;;;;;13.18;4.90;;;11.80;99.90;;;;;;5087501;28;20235;-87
2023/10/11 01:21:04;;;;;;;13.75;4.93;;;11.80;99.90;;;;;;5090784;28;20196;-87
2023/10/11 01:23:34;;;;;;;11.05;4.78;;;11.80;99.90;;;;;;5089584;28;20243;-87
2023/10/11 01:26:06;;;;;;;14.55;4.88;;;11.80;99.90;;;;;;5091530;28;20210;-87
2023/10/11 01:28:33;;;;;;;13.00;4.88;;;11.80;99.90;;;;;;5086125;28;20519;-87
2023/10/11 01:31:00;;;;;;;13.18;4.85;;;11.90;99.90;;;;;;5089134;28;20210;-87
2023/10/11 01:33:27;;;;;;;14.45;5.15;;;12.00;99.90;;;;;;5088580;28;20577;-87
2023/10/11 01:35:54;;;;;;;14.70;5.15;;;12.00;99.90;;;;;;5093381;28;20212;-86
2023/10/11 01:38:24;;;;;;;13.02;5.18;;;12.00;99.90;;;;;;5090334;28;20207;-87
2023/10/11 01:40:55;;;;;;;14.05;5.05;;;12.00;99.90;;;;;;5079384;28;20291;-87
2023/10/11 01:43:22;;;;;;;10.85;5.05;;;12.00;99.90;;;;;;5088370;28;20208;-87
2023/10/11 01:45:49;;;;;;;12.45;5.35;;;12.00;99.90;;;;;;5077843;28;20197;-87
2023/10/11 01:48:17;;;;;;;17.63;4.72;;;12.10;99.90;;;;;;5090650;28;20201;-87
2023/10/11 01:50:47;;;;;;;11.55;4.78;;;12.20;99.90;;;;;;5085310;28;20216;-87
2023/10/11 01:53:14;;;;;;;13.00;5.43;;;12.20;99.90;;;;;;5087420;28;20258;-86
2023/10/11 01:55:42;;;;;;;14.82;5.07;;;12.10;99.90;;;;;;5087423;28;20739;-86
2023/10/11 01:58:12;;;;;;;11.85;4.72;;;12.10;99.90;;;;;;5091408;28;20200;-87
2023/10/11 02:00:39;;;;;;;13.25;5.07;;;12.10;99.90;;;;;;5094380;28;20205;-87
2023/10/11 02:03:12;;;;;;;16.60;5.32;;;12.00;99.90;;;;;;5090161;28;20250;-86
2023/10/11 02:05:40;;;;;;;11.60;4.55;;;11.90;99.90;;;;;;5088762;28;20196;-87
2023/10/11 02:08:11;;;;;;;13.20;4.45;;;11.90;99.90;;;;;;5081628;28;20646;-87
2023/10/11 02:10:39;;;;;;;14.48;4.80;;;12.00;99.90;;;;;;5086647;28;20254;-86
2023/10/11 02:13:09;;;;;;;11.32;4.80;;;12.00;99.90;;;;;;5090021;28;20577;-87
2023/10/11 02:15:37;;;;;;;9.52;4.40;;;12.00;99.90;;;;;;5094621;28;20240;-87
2023/10/11 02:18:08;;;;;;;10.75;4.53;;;12.00;99.90;;;;;;5078877;28;20204;-86
2023/10/11 02:20:35;;;;;;;12.10;4.63;;;11.90;99.90;;;;;;5086374;28;20204;-86
2023/10/11 02:23:03;;;;;;;14.65;5.07;;;12.00;99.90;;;;;;5093235;28;20200;-87
2023/10/11 02:25:33;;;;;;;11.20;4.35;;;11.90;99.90;;;;;;5081877;28;20600;-87
2023/10/11 02:28:01;;;;;;;14.98;4.50;;;11.70;99.90;;;;;;5089913;28;20193;-87
2023/10/11 02:30:34;;;;;;;17.52;4.43;;;11.80;99.90;;;;;;5095716;28;20660;-86
2023/10/11 02:33:01;;;;;;;12.70;4.75;;;11.70;99.90;;;;;;5094387;28;20238;-86
2023/10/11 02:35:28;;;;;;;13.00;5.10;;;11.60;99.90;;;;;;5085400;28;20224;-87
2023/10/11 02:37:56;;;;;;;9.23;4.57;;;11.50;99.90;;;;;;5094876;28;20572;-87
2023/10/11 02:40:24;;;;;;;12.05;4.80;;;11.60;99.90;;;;;;5089016;28;20262;-87
2023/10/11 02:42:53;;;;;;;18.13;5.10;;;11.60;99.90;;;;;;5093394;28;20203;-87
2023/10/11 02:45:21;;;;;;;17.13;5.03;;;11.60;99.90;;;;;;5099362;28;20248;-87
2023/10/11 02:47:58;;;;;;;15.80;5.60;;;11.60;99.90;;;;;;5089530;28;20193;-86
2023/10/11 02:50:26;;;;;;;13.82;5.00;;;11.50;99.90;;;;;;5085045;28;20197;-87
2023/10/11 02:52:59;;;;;;;10.35;4.80;;;11.50;99.90;;;;;;5091471;28;20624;-87
2023/10/11 02:55:27;;;;;;;13.23;5.22;;;11.50;99.90;;;;;;5088138;28;20560;-87
2023/10/11 02:58:06;;;;;;;12.25;4.70;;;11.50;99.90;;;;;;5086837;28;20296;-87
2023/10/11 03:00:33;;;;;;;18.73;5.57;;;11.40;99.90;;;;;;5076247;28;20205;-86
2023/10/11 03:03:07;;;;;;;13.15;4.88;;;11.40;99.90;;;;;;5093747;28;20207;-86
2023/10/11 03:05:37;;;;;;;12.18;4.75;;;11.40;99.90;;;;;;5084841;28;20197;-87
2023/10/11 03:08:14;;;;;;;8.93;4.63;;;11.30;99.90;;;;;;5089917;28;20215;-87
2023/10/11 03:10:45;;;;;;;11.18;4.50;;;11.30;99.90;;;;;;5081954;28;20227;-87
2023/10/11 03:13:23;;;;;;;12.10;5.22;;;11.30;99.90;;;;;;5085619;28;20205;-87
2023/10/11 03:15:54;;;;;;;12.93;5.45;;;11.30;99.90;;;;;;5080634;28;20256;-86
2023/10/11 03:18:25;;;;;;;14.32;5.32;;;11.20;99.90;;;;;;5079269;28;20200;-87
2023/10/11 03:20:58;;;;;;;13.43;5.40;;;11.30;99.90;;;;;;5085911;28;20203;-86
2023/10/11 03:23:27;;;;;;;18.25;5.28;;;11.20;99.90;;;;;;5085141;28;20204;-86
2023/10/11 03:25:55;;;;;;;15.15;5.43;;;11.10;99.90;;;;;;5084257;28;20197;-86
2023/10/11 03:28:26;;;;;;;10.80;5.00;;;11.10;99.90;;;;;;5093779;28;20559;-87
2023/10/11 03:30:54;;;;;;;13.00;5.18;;;11.10;99.90;;;;;;5091349;28;20196;-86
2023/10/11 03:33:21;;;;;;;12.55;5.03;;;11.10;99.90;;;;;;5071990;28;20197;-86
2023/10/11 03:35:50;;;;;;;15.02;5.43;;;11.00;99.90;;;;;;5091820;28;20233;-87
2023/10/11 03:38:21;;;;;;;13.10;5.25;;;11.00;99.90;;;;;;5088475;28;20192;-87
2023/10/11 03:41:11;;;;;;;13.95;5.30;;;11.10;99.90;;;;;;5091105;28;20208;-86
2023/10/11 03:43:40;;;;;;;16.33;4.95;;;11.10;99.90;;;;;;5092579;28;20725;-87
2023/10/11 03:46:09;;;;;;;15.38;5.18;;;11.10;99.90;;;;;;5086774;28;20193;-86
2023/10/11 03:48:44;;;;;;;13.73;5.32;;;11.10;99.90;;;;;;5091841;28;20200;-86
2023/10/11 03:51:13;;;;;;;15.10;5.07;;;11.10;99.90;;;;;;5082446;28;20220;-87
2023/10/11 03:53:40;;;;;;;12.32;4.88;;;11.10;99.90;;;;;;5086405;28;20295;-86
2023/10/11 03:56:08;;;;;;;16.50;4.72;;;11.20;99.90;;;;;;5088923;28;20228;-87
2023/10/11 03:58:37;;;;;;;10.70;4.55;;;11.20;99.90;;;;;;5083106;28;20645;-86
2023/10/11 04:01:09;;;;;;;9.85;4.90;;;11.30;99.90;;;;;;5072884;28;20243;-86
2023/10/11 04:03:39;;;;;;;11.93;5.13;;;11.50;99.90;;;;;;5088490;28;20188;-87
2023/10/11 04:06:13;;;;;;;13.65;5.10;;;11.40;99.90;;;;;;5086551;28;20197;-86
2023/10/11 04:08:43;;;;;;;12.20;4.88;;;11.50;99.90;;;;;;5085124;28;20197;-87
2023/10/11 04:11:16;;;;;;;12.05;4.50;;;11.50;99.90;;;;;;5085428;28;20203;-87
2023/10/11 04:13:45;;;;;;;14.13;4.88;;;11.50;99.90;;;;;;5081222;28;20688;-87
2023/10/11 04:16:12;;;;;;;13.50;5.13;;;11.50;99.90;;;;;;5079960;28;20569;-86
2023/10/11 04:18:39;;;;;;;12.43;5.10;;;11.50;99.90;;;;;;5087825;28;20192;-85
2023/10/11 04:21:38;;;;;;;13.82;4.20;;;11.50;99.90;;;;;;5086614;28;20600;-86
2023/10/11 04:24:07;;;;;;;16.92;4.80;;;11.50;99.90;;;;;;5083868;28;20848;-86
2023/10/11 04:26:36;;;;;;;15.40;5.20;;;11.40;99.90;;;;;;5085251;28;20645;-86
2023/10/11 04:29:17;;;;;;;11.27;5.25;;;11.40;99.90;;;;;;5088603;28;20219;-86
2023/10/11 04:31:55;;;;;;;12.40;4.70;;;11.40;99.90;;;;;;5084045;28;20196;-86
2023/10/11 04:34:24;;;;;;;14.88;5.07;;;11.40;99.90;;;;;;5087777;28;20213;-87
2023/10/11 04:36:55;;;;;;;14.48;4.32;;;11.40;99.90;;;;;;5090033;28;20197;-89
2023/10/11 04:39:34;;;;;;;15.68;5.00;;;11.30;99.90;;;;;;5093965;28;20868;-88
2023/10/11 04:42:02;;;;;;;11.32;4.90;;;11.30;99.90;;;;;;5082763;28;20195;-87
2023/10/11 04:44:42;;;;;;;11.95;4.80;;;11.30;99.90;;;;;;5081687;28;20201;-88
2023/10/11 04:47:09;;;;;;;11.45;5.15;;;11.30;99.90;;;;;;5085368;28;20250;-88
2023/10/11 04:49:36;;;;;;;12.15;4.95;;;11.20;99.90;;;;;;5081266;28;20205;-88
2023/10/11 04:52:13;;;;;;;10.48;4.65;;;11.30;99.90;;;;;;5085930;28;20235;-89
2023/10/11 04:54:53;;;;;;;17.00;5.13;;;11.30;99.90;;;;;;5088005;28;20698;-87
2023/10/11 04:57:32;;;;;;;13.80;5.03;;;11.30;99.90;;;;;;5088202;28;20189;-87
2023/10/11 05:00:00;;;;;;;13.52;5.20;;;11.30;99.90;;;;;;5082492;28;20192;-87
2023/10/11 05:02:32;;;;;;;14.27;4.53;;;11.30;99.90;;;;;;5079281;28;20203;-88
2023/10/11 05:05:00;;;;;;;14.32;5.07;;;11.30;99.90;;;;;;5083902;28;20193;-87
2023/10/11 05:07:28;;;;;;;13.52;5.32;;;11.20;99.90;;;;;;5083462;28;20628;-88
2023/10/11 05:10:22;;;;;;;15.63;4.63;;;11.20;99.90;;;;;;5085925;28;20201;-88
2023/10/11 05:12:57;;;;;;;10.75;4.85;;;11.20;99.90;;;;;;5092081;28;20258;-88
2023/10/11 05:15:29;;;;;;;13.18;4.68;;;11.10;99.90;;;;;;5080625;28;20204;-86
2023/10/11 05:17:59;;;;;;;14.57;5.22;;;11.10;99.90;;;;;;5072781;28;20201;-87
2023/10/11 05:20:57;;;;;;;16.05;5.55;;;11.10;99.90;;;;;;5087102;28;20275;-88
2023/10/11 05:23:33;;;;;;;19.88;5.95;;;11.00;99.90;;;;;;5080522;28;20197;-87
2023/10/11 05:26:16;;;;;;;17.58;6.75;;;11.00;99.90;;;;;;5082740;28;20188;-87
2023/10/11 05:28:59;;;;;;;10.60;6.15;;;11.00;99.90;;;;;;5084047;28;20204;-87
2023/10/11 05:31:34;;;;;;;13.82;5.85;;;11.00;99.90;;;;;;5088082;28;20196;-87
2023/10/11 05:50:49;;;;;;;17.73;6.47;;;11.00;99.90;;;;;;5072297;28;20193;-90
2023/10/11 05:53:25;;;;;;;13.20;5.38;;;11.00;99.90;;;;;;5071449;28;20220;-84
2023/10/11 05:55:56;;;;;;;15.50;6.07;;;11.00;99.90;;;;;;5084237;28;20768;-85
2023/10/11 05:58:24;;;;;;;14.75;6.15;;;11.10;99.90;;;;;;5097812;28;20199;-85
2023/10/11 06:00:54;;;;;;;15.57;5.47;;;11.10;99.90;;;;;;5084741;28;20197;-84
2023/10/11 06:03:28;;;;;;;15.55;6.03;;;11.10;99.90;;;;;;5074057;28;20252;-85
2023/10/11 06:05:55;;;;;;;15.73;5.93;;;11.20;99.90;;;;;;5085730;28;20292;-85
2023/10/11 06:08:24;;;;;;;16.42;5.60;;;11.20;99.90;;;;;;5085145;28;20201;-84
2023/10/11 06:10:55;;;;;;;13.35;5.53;;;11.30;99.90;;;;;;5074329;28;20219;-85
2023/10/11 06:13:23;;;;;;;18.13;6.00;;;11.40;99.90;;;;;;5079352;28;20216;-85
2023/10/11 06:15:59;;;;;;;15.85;5.93;;;11.50;99.90;;;;;;5095950;28;20220;-85
2023/10/11 06:21:24;;;;;;;14.45;5.22;;;12.00;99.90;;;;;;5077183;28;20200;-85
2023/10/11 06:23:53;;;;;;;10.70;4.70;;;12.20;99.90;;;;;;5087005;28;20192;-85
2023/10/11 06:26:52;;;;;;;10.20;4.93;;;12.40;99.90;;;;;;5085543;28;20207;-85
2023/10/11 06:29:22;;;;;;;14.75;5.47;;;12.50;99.90;;;;;;5099928;28;20201;-85
2023/10/11 06:31:50;;;;;;;11.10;4.70;;;12.60;99.90;;;;;;5078671;28;20215;-85
2023/10/11 06:34:23;;;;;;;18.13;5.25;;;12.70;99.90;;;;;;5080023;28;20200;-85
2023/10/11 06:36:50;;;;;;;14.30;4.60;;;12.80;99.90;;;;;;5083426;28;20231;-85
2023/10/11 06:42:06;;;;;;;16.55;5.55;;;13.00;99.90;;;;;;5054910;28;20297;-86
2023/10/11 06:44:34;;;;;;;11.93;4.88;;;13.10;99.90;;;;;;5088299;28;20250;-87
2023/10/11 06:47:03;;;;;;;11.93;5.10;;;13.20;99.90;;;;;;5085344;28;20196;-85
2023/10/11 06:49:40;;;;;;;19.25;5.75;;;13.30;99.90;;;;;;5084056;28;20680;-85
2023/10/11 06:52:08;;;;;;;14.23;4.90;;;13.40;99.90;;;;;;5080542;28;20223;-85
2023/10/11 06:54:35;;;;;;;14.07;4.88;;;13.60;99.90;;;;;;5088885;28;20280;-85
2023/10/11 06:57:03;;;;;;;15.40;5.28;;;13.80;99.90;;;;;;5075595;28;20197;-84
2023/10/11 06:59:30;;;;;;;14.63;5.18;;;13.90;99.90;;;;;;5088327;28;20193;-85
2023/10/11 07:02:00;;;;;;;14.88;4.70;;;14.10;99.90;;;;;;5086382;28;20291;-85
2023/10/11 07:04:36;;;;;;;12.57;4.90;;;14.30;99.90;;;;;;5085266;28;20687;-85
2023/10/11 07:07:07;;;;;;;10.68;4.30;;;14.40;99.40;;;;;;5089231;28;20645;-84
2023/10/11 07:09:39;;;;;;;9.48;4.82;;;14.60;99.30;;;;;;5094022;28;20193;-84
2023/10/11 07:12:28;;;;;;;11.73;4.88;;;14.80;98.50;;;;;;5075102;28;20200;-85
2023/10/11 07:14:57;;;;;;;13.57;4.65;;;14.90;97.90;;;;;;5097879;28;20200;-84
2023/10/11 07:17:28;;;;;;;17.80;4.95;;;15.00;97.70;;;;;;5087206;28;20251;-84
2023/10/11 07:19:57;;;;;;;11.35;4.50;;;15.10;96.50;;;;;;5090228;28;20652;-84
2023/10/11 07:22:26;;;;;;;11.63;3.92;;;15.10;96.50;;;;;;5086711;28;20741;-85
2023/10/11 07:24:56;;;;;;;12.88;3.75;;;15.10;96.30;;;;;;5081349;28;20202;-86
2023/10/11 07:27:26;;;;;;;11.27;4.18;;;15.00;95.80;;;;;;5084463;28;20558;-87
2023/10/11 07:29:54;;;;;;;12.85;4.20;;;14.90;95.80;;;;;;5080017;28;20246;-86
2023/10/11 07:32:20;;;;;;;9.45;4.03;;;14.90;95.70;;;;;;5093032;28;20192;-85
2023/10/11 07:34:49;;;;;;;11.80;3.78;;;14.90;95.70;;;;;;5092156;28;20922;-85
2023/10/11 07:37:18;;;;;;;10.32;4.13;;;14.80;95.60;;;;;;5115509;27;20570;-86
2023/10/11 07:39:47;;;;;;;11.10;4.00;;;14.80;95.70;;;;;;5091797;28;20197;-84
2023/10/11 07:42:18;;;;;;;11.40;3.75;;;14.80;95.70;;;;;;5090071;28;20200;-85
2023/10/11 07:44:50;;;;;;;11.07;4.03;;;14.90;95.40;;;;;;5083121;28;20201;-86
2023/10/11 07:47:18;;;;;;;11.75;4.10;;;15.00;95.10;;;;;;5085684;28;20218;-87
2023/10/11 07:49:46;;;;;;;13.70;4.15;;;15.10;95.10;;;;;;5089485;28;20213;-86
2023/10/11 07:52:19;;;;;;;10.65;3.97;;;15.20;94.70;;;;;;5095839;28;20219;-85
2023/10/11 07:54:46;;;;;;;11.50;3.90;;;15.40;94.30;;;;;;5097904;28;20189;-90
2023/10/11 07:57:14;;;;;;;15.85;4.47;;;15.50;94.40;;;;;;5079434;28;20229;-85
2023/10/11 07:59:41;;;;;;;13.52;4.07;;;15.60;93.20;;;;;;5089376;28;20197;-86
2023/10/11 08:02:25;;;;;;;12.73;3.72;;;15.70;93.00;;;;;;5088099;28;20205;-86
2023/10/11 08:04:53;;;;;;;8.85;3.97;;;15.80;92.90;;;;;;5083742;28;20578;-85
2023/10/11 08:07:22;;;;;;;9.70;3.67;;;15.90;92.90;;;;;;5084152;28;20220;-87
2023/10/11 08:09:52;;;;;;;9.52;3.50;;;16.00;92.40;;;;;;5089855;28;20211;-87
2023/10/11 08:12:22;;;;;;;8.27;3.65;;;16.10;91.80;;;;;;5087389;28;20247;-86
2023/10/11 08:14:49;;;;;;;11.52;3.55;;;16.30;91.80;;;;;;5081438;28;20201;-86
2023/10/11 08:17:16;;;;;;;9.23;3.78;;;16.40;91.80;;;;;;5085999;28;20228;-87
2023/10/11 08:19:45;;;;;;;10.02;4.10;;;16.60;91.30;;;;;;5083091;28;20654;-87
2023/10/11 08:22:14;;;;;;;9.32;4.05;;;16.70;90.50;;;;;;5085861;28;20197;-87
2023/10/11 08:24:49;;;;;;;13.48;3.50;;;16.80;90.20;;;;;;5089338;28;20192;-87
2023/10/11 08:27:23;;;;;;;7.07;3.40;;;17.00;89.70;;;;;;5082267;28;20209;-87
2023/10/11 08:29:54;;;;;;;9.02;3.75;;;17.10;87.40;;;;;;5089710;28;20653;-87
2023/10/11 08:32:25;;;;;;;12.88;3.92;;;17.20;82.90;;;;;;5083462;28;20194;-87
2023/10/11 08:34:54;;;;;;;12.43;3.83;;;17.50;79.00;;;;;;5083704;28;20662;-88
2023/10/11 08:37:21;;;;;;;10.40;3.80;;;17.50;77.80;;;;;;5081734;28;20217;-87
2023/10/11 08:39:54;;;;;;;13.07;3.78;;;17.70;75.10;;;;;;5087303;28;20203;-87
2023/10/11 08:42:22;;;;;;;10.77;3.83;;;17.90;66.70;;;;;;5115785;27;20197;-88
2023/10/11 08:44:51;;;;;;;12.73;3.72;;;18.00;64.30;;;;;;5079286;28;20209;-87
2023/10/11 08:47:19;;;;;;;8.80;3.70;;;18.10;63.00;;;;;;5083320;28;20196;-87
2023/10/11 08:49:50;;;;;;;10.73;3.85;;;18.30;62.60;;;;;;5078822;28;20201;-87
2023/10/11 08:52:22;;;;;;;14.43;3.53;;;18.50;60.10;;;;;;5081715;28;20212;-87
2023/10/11 08:54:50;;;;;;;10.07;3.50;;;18.70;53.50;;;;;;5088526;28;20199;-87
2023/10/11 08:57:23;;;;;;;14.02;3.63;;;19.10;42.00;;;;;;5089855;28;20212;-87
2023/10/11 08:59:50;;;;;;;8.05;3.40;;;19.40;42.10;;;;;;5094453;28;20253;-86
2023/10/11 09:02:18;;;;;;;13.80;3.85;;;19.90;40.10;;;;;;5086675;28;20208;-86
2023/10/11 09:04:56;;;;;;;13.18;3.67;;;20.40;33.00;;;;;;5078529;28;20196;-84
2023/10/11 09:07:36;;;;;;;13.35;3.85;;;21.70;26.10;;;;;;5086969;28;20246;-84
2023/10/11 09:10:23;;;;;;;12.00;3.72;;;23.70;19.30;;;;;;5086978;28;20200;-84
2023/10/11 09:12:56;;;;;;;12.13;3.88;;;25.00;17.80;;;;;;5085734;28;20212;-84
2023/10/11 09:15:23;;;;;;;8.52;3.70;;;26.30;14.80;;;;;;5081725;28;20231;-88
2023/10/11 09:17:51;;;;;;;9.25;3.58;;;27.70;12.80;;;;;;5086903;28;20200;-87
2023/10/11 09:20:23;;;;;;;12.27;4.20;;;28.60;10.60;;;;;;5084021;28;20241;-88
2023/10/11 09:22:52;;;;;;;8.05;4.22;;;29.10;10.20;;;;;;5087941;28;20303;-88
2023/10/11 09:25:33;;;;;;;10.25;4.35;;;29.40;7.40;;;;;;5101075;28;20207;-87
2023/10/11 09:28:00;;;;;;;9.30;4.57;;;29.50;6.80;;;;;;5089453;28;20359;-89
2023/10/11 09:30:28;;;;;;;10.75;4.40;;;30.00;7.00;;;;;;5085617;28;20215;-88
2023/10/11 09:32:59;;;;;;;11.65;5.57;;;30.60;6.70;;;;;;5087853;28;20661;-86
2023/10/11 09:35:28;;;;;;;8.57;4.47;;;30.50;5.80;;;;;;5087581;28;20291;-85
2023/10/11 09:37:59;;;;;;;12.93;5.60;;;31.10;3.60;;;;;;5084525;28;20195;-86
2023/10/11 09:40:30;;;;;;;12.13;4.97;;;30.70;4.10;;;;;;5092627;28;20200;-89
2023/10/11 09:43:01;;;;;;;10.57;4.55;;;30.90;4.60;;;;;;5095151;28;20210;-85
2023/10/11 09:45:42;;;;;;;10.75;4.90;;;30.80;4.00;;;;;;5079952;28;20197;-86
2023/10/11 09:48:17;;;;;;;7.57;4.47;;;30.60;4.10;;;;;;5084855;28;20295;-90
2023/10/11 09:50:44;;;;;;;8.65;4.80;;;30.60;4.20;;;;;;5078699;28;20220;-90
2023/10/11 09:53:12;;;;;;;12.00;5.03;;;30.60;4.80;;;;;;5091068;28;20671;-90
2023/10/11 09:55:51;;;;;;;17.77;5.40;;;30.20;4.10;;;;;;5082002;28;20552;-90
2023/10/11 09:58:29;;;;;;;11.20;5.40;;;29.70;5.70;;;;;;5082026;28;20633;-89
2023/10/11 10:01:07;;;;;;;9.00;5.05;;;29.50;7.30;;;;;;5084515;28;20195;-91
2023/10/11 10:03:38;;;;;;;8.70;4.82;;;29.50;6.80;;;;;;5089149;28;20195;-90
2023/10/11 10:06:18;;;;;;;11.90;5.40;;;29.20;7.70;;;;;;5084963;28;20204;-91
2023/10/11 10:08:50;;;;;;;10.38;4.72;;;28.80;6.60;;;;;;5078724;28;20615;-90
2023/10/11 10:11:19;;;;;;;12.45;5.38;;;28.90;8.30;;;;;;5080737;28;20565;-88
2023/10/11 10:14:03;;;;;;;7.40;4.55;;;29.20;7.50;;;;;;5086688;28;20285;-90
2023/10/11 10:17:11;;;;;;;9.57;4.30;;;29.00;8.90;;;;;;5085847;28;20224;-86
2023/10/11 10:19:40;;;;;;;15.52;5.65;;;29.10;7.20;;;;;;5008839;28;20202;-90
2023/10/11 10:22:16;;;;;;;12.02;4.80;;;29.20;7.70;;;;;;5083889;28;20199;-86
2023/10/11 10:24:47;;;;;;;14.23;4.75;;;29.20;6.70;;;;;;5082617;28;20531;-89
2023/10/11 10:27:38;;;;;;;11.48;5.15;;;29.30;6.80;;;;;;5078541;28;20215;-88
2023/10/11 10:30:06;;;;;;;8.60;4.57;;;29.80;5.30;;;;;;5091315;28;20242;-86
2023/10/11 10:32:34;;;;;;;7.97;4.57;;;29.90;5.80;;;;;;5090689;28;20192;-89
2023/10/11 10:35:26;;;;;;;11.40;4.97;;;29.00;7.20;;;;;;5093433;28;20203;-88
2023/10/11 10:37:55;;;;;;;10.05;4.97;;;28.60;7.00;;;;;;5079672;28;20583;-89
2023/10/11 10:40:25;;;;;;;12.15;4.93;;;28.10;8.70;;;;;;5093342;28;20192;-88
2023/10/11 10:43:20;;;;;;;10.07;4.78;;;27.80;9.20;;;;;;5088253;28;20203;-88
2023/10/11 10:45:51;;;;;;;10.32;4.30;;;27.70;8.30;;;;;;5085346;28;20511;-88
2023/10/11 10:48:19;;;;;;;10.15;4.72;;;27.80;7.80;;;;;;5094060;28;20200;-88
2023/10/11 10:50:47;;;;;;;13.98;4.03;;;27.80;7.90;;;;;;5090834;28;20217;-88
2023/10/11 10:53:14;;;;;;;11.60;4.38;;;27.80;6.00;;;;;;5084185;28;20201;-85
2023/10/11 10:55:42;;;;;;;15.65;4.78;;;28.30;6.00;;;;;;5085075;28;20201;-86
2023/10/11 10:58:09;;;;;;;13.18;4.78;;;28.00;7.30;;;;;;5088709;28;20774;-86
2023/10/11 11:00:40;;;;;;;11.75;4.00;;;27.50;8.20;;;;;;5088689;28;20530;-87
2023/10/11 11:03:19;;;;;;;10.77;4.30;;;26.90;9.50;;;;;;5092144;28;20196;-87
2023/10/11 11:05:55;;;;;;;11.43;4.85;;;26.80;9.30;;;;;;5087543;28;20192;-86
2023/10/11 11:08:25;;;;;;;14.00;4.53;;;26.60;11.10;;;;;;5096727;28;20253;-84
2023/10/11 11:10:55;;;;;;;10.75;4.03;;;26.40;11.00;;;;;;5076306;28;20280;-83
2023/10/11 11:13:22;;;;;;;13.73;4.22;;;26.10;11.90;;;;;;5087112;28;20208;-83
2023/10/11 11:15:55;;;;;;;9.70;4.18;;;26.10;11.20;;;;;;5087760;28;20824;-83
2023/10/11 11:18:32;;;;;;;13.02;4.35;;;26.10;12.00;;;;;;5086054;28;20196;-82
2023/10/11 11:21:17;;;;;;;12.80;4.13;;;25.90;12.10;;;;;;5084868;28;20204;-83
2023/10/11 11:23:44;;;;;;;11.02;4.70;;;25.90;12.50;;;;;;5094354;28;20218;-82
2023/10/11 11:26:15;;;;;;;12.57;4.32;;;25.70;11.80;;;;;;5090057;28;20262;-84
2023/10/11 11:28:42;;;;;;;11.77;4.70;;;25.50;11.90;;;;;;5086809;28;20201;-83
2023/10/11 11:31:13;;;;;;;16.67;5.10;;;25.30;12.40;;;;;;5082926;28;20283;-86
2023/10/11 11:34:05;;;;;;;13.35;4.57;;;25.20;12.40;;;;;;5088195;28;20676;-86
2023/10/11 11:36:34;;;;;;;17.08;4.93;;;25.00;13.20;;;;;;5095182;28;20274;-86
2023/10/11 11:41:42;;;;;;;12.18;4.60;;;25.10;13.30;;;;;;5087204;28;20265;-87
2023/10/11 11:44:19;;;;;;;13.73;4.00;;;25.00;13.50;;;;;;5088705;28;20199;-87
2023/10/11 11:46:49;;;;;;;10.00;4.38;;;25.00;12.70;;;;;;5082517;28;20201;-88
2023/10/11 11:49:20;;;;;;;11.57;4.00;;;25.00;13.40;;;;;;5079781;28;20197;-87
2023/10/11 11:51:55;;;;;;;11.43;4.43;;;25.10;12.60;;;;;;5087412;28;20219;-86
2023/10/11 11:54:23;;;;;;;13.20;3.90;;;25.10;14.20;;;;;;5079909;28;20196;-86
2023/10/11 11:56:54;;;;;;;14.32;4.43;;;25.20;14.20;;;;;;5078923;28;20293;-87
2023/10/11 11:59:21;;;;;;;12.32;3.88;;;25.00;14.20;;;;;;5080184;28;20291;-87
2023/10/11 12:01:52;;;;;;;14.52;3.90;;;25.00;13.20;;;;;;5082155;28;20566;-86
2023/10/11 12:04:24;;;;;;;12.30;4.13;;;25.00;13.60;;;;;;5083905;28;20193;-88
2023/10/11 12:06:51;;;;;;;11.10;4.30;;;25.00;14.20;;;;;;5086283;28;20204;-87
2023/10/11 12:09:20;;;;;;;9.73;3.78;;;24.90;14.10;;;;;;5082308;28;20205;-86
2023/10/11 12:11:49;;;;;;;12.43;4.03;;;24.90;14.10;;;;;;5082815;28;20197;-86
2023/10/11 12:14:16;;;;;;;10.40;4.10;;;25.00;14.20;;;;;;5085796;28;20699;-85
2023/10/11 12:16:43;;;;;;;12.68;4.70;;;25.00;14.20;;;;;;5077436;28;20224;-86
2023/10/11 12:19:14;;;;;;;17.42;4.18;;;25.10;12.70;;;;;;5084879;28;20201;-85
2023/10/11 12:21:41;;;;;;;12.48;4.05;;;25.10;12.80;;;;;;5075698;28;20190;-85
2023/10/11 12:24:11;;;;;;;18.58;5.32;;;25.10;14.20;;;;;;5089674;28;21751;-87
2023/10/11 12:26:41;;;;;;;13.98;4.55;;;25.00;14.20;;;;;;5087133;28;20705;-86
2023/10/11 12:29:09;;;;;;;15.65;4.40;;;24.90;13.40;;;;;;5083988;28;20231;-86
2023/10/11 12:31:38;;;;;;;11.13;4.05;;;25.00;13.50;;;;;;5077147;28;20211;-86
2023/10/11 12:34:08;;;;;;;8.25;4.47;;;24.90;14.00;;;;;;5086935;28;20203;-84
2023/10/11 12:36:39;;;;;;;10.15;4.32;;;24.90;14.10;;;;;;5090612;28;20227;-85
2023/10/11 12:39:08;;;;;;;9.40;4.10;;;24.90;14.10;;;;;;5089042;28;20633;-86
2023/10/11 12:41:36;;;;;;;11.48;4.25;;;24.90;15.10;;;;;;5098223;28;20201;-86
2023/10/11 12:44:04;;;;;;;14.15;4.70;;;25.00;14.20;;;;;;5088039;28;20595;-86
2023/10/11 12:46:30;;;;;;;13.32;4.30;;;24.90;14.10;;;;;;5086030;28;20196;-86
2023/10/11 12:48:57;;;;;;;13.80;4.72;;;24.90;14.20;;;;;;5094183;28;20224;-87
2023/10/11 12:51:25;;;;;;;11.55;4.68;;;25.00;12.60;;;;;;5095137;28;20208;-86
2023/10/11 12:53:54;;;;;;;12.50;4.20;;;25.00;11.70;;;;;;5075088;28;20225;-85
2023/10/11 12:56:23;;;;;;;11.25;4.20;;;24.90;12.20;;;;;;5086983;28;20197;-87
2023/10/11 12:58:52;;;;;;;8.32;3.88;;;24.90;11.50;;;;;;5094406;28;20886;-87
2023/10/11 13:01:26;;;;;;;13.07;4.65;;;24.80;12.30;;;;;;5084788;28;20197;-87
2023/10/11 13:04:05;;;;;;;11.80;4.43;;;24.80;11.20;;;;;;5079140;28;20197;-84
2023/10/11 13:06:36;;;;;;;11.50;4.22;;;24.90;11.40;;;;;;5083103;28;20894;-88
2023/10/11 13:09:13;;;;;;;13.38;4.05;;;24.80;11.00;;;;;;5089257;28;20192;-86
2023/10/11 13:11:44;;;;;;;11.63;3.78;;;24.80;11.60;;;;;;5086700;28;20241;-85
2023/10/11 13:14:12;;;;;;;9.90;4.45;;;24.80;11.20;;;;;;5086528;28;20216;-87
2023/10/11 13:16:40;;;;;;;11.80;4.38;;;24.70;11.30;;;;;;5087209;28;20650;-85
2023/10/11 13:19:08;;;;;;;13.23;4.13;;;24.70;11.30;;;;;;5115472;27;20211;-86
2023/10/11 13:21:35;;;;;;;9.25;4.50;;;24.80;11.10;;;;;;5083454;28;20257;-86
2023/10/11 13:24:08;;;;;;;12.48;4.05;;;24.90;11.00;;;;;;5080872;28;20701;-86